Time;durP1;ratioP1;P1;durP2;ratioP2;P2;SDS_P1;SDS_P2;PMS_P1;PMS_P2;Temp;Humidity;BMP_temperature;BMP_pressure;BME280_temperature;BME280_humidity;BME280_pressure;Samples;Min_cycle;Max_cycle;Signal;HPM_P1;HPM_P2
2021/04/30 00:01:07;;;;;;;1.93;1.50;;;;;;;8.04;100.00;100040.47;5009270;28;20589;-73
2021/04/30 00:03:33;;;;;;;0.57;0.57;;;;;;;8.02;100.00;100030.19;5030096;28;20362;-73
2021/04/30 00:05:58;;;;;;;0.73;0.73;;;;;;;7.97;100.00;100038.31;4981245;28;20624;-72
2021/04/30 00:08:24;;;;;;;0.30;0.30;;;;;;;8.04;100.00;100045.88;5026880;28;20191;-73
2021/04/30 00:10:53;;;;;;;2.57;0.83;;;;;;;8.21;100.00;100048.34;5034367;28;20218;-73
2021/04/30 00:13:24;;;;;;;0.90;0.87;;;;;;;8.12;100.00;100048.06;5050222;28;20179;-73
2021/04/30 00:15:49;;;;;;;0.27;0.27;;;;;;;8.17;100.00;100056.19;5033897;28;20227;-72
2021/04/30 00:18:15;;;;;;;1.07;0.97;;;;;;;8.22;100.00;100056.19;5034411;28;20175;-73
2021/04/30 00:20:47;;;;;;;0.27;0.27;;;;;;;8.11;100.00;100061.84;5050453;28;20317;-72
2021/04/30 00:23:12;;;;;;;0.47;0.47;;;;;;;8.14;100.00;100067.53;5018930;28;20212;-72
2021/04/30 00:25:41;;;;;;;0.83;0.83;;;;;;;7.95;100.00;100065.63;5017478;28;20274;-72
2021/04/30 00:28:07;;;;;;;1.30;0.70;;;;;;;8.00;100.00;100070.22;4998464;28;20181;-72
2021/04/30 00:30:38;;;;;;;2.17;1.70;;;;;;;7.99;100.00;100069.41;5014113;28;20216;-72
2021/04/30 00:33:03;;;;;;;1.50;1.50;;;;;;;7.98;100.00;100066.97;5031336;28;20263;-72
2021/04/30 00:35:31;;;;;;;1.40;1.37;;;;;;;8.22;100.00;100058.06;5030074;28;20235;-73
2021/04/30 00:37:59;;;;;;;0.40;0.40;;;;;;;8.00;100.00;100073.72;5015078;28;20180;-72
2021/04/30 00:40:27;;;;;;;0.63;0.63;;;;;;;8.02;100.00;100073.44;4997116;28;20234;-72
2021/04/30 00:42:57;;;;;;;0.70;0.70;;;;;;;8.03;100.00;100079.41;5025021;28;20640;-72
2021/04/30 00:45:24;;;;;;;14.47;9.90;;;;;;;8.10;100.00;100088.09;5033549;28;20373;-72
2021/04/30 00:47:50;;;;;;;16.73;11.77;;;;;;;7.92;100.00;100093.19;5017325;28;20242;-73
2021/04/30 00:50:16;;;;;;;19.00;11.07;;;;;;;8.03;100.00;100092.91;5033495;28;20251;-73
2021/04/30 00:52:44;;;;;;;17.57;13.10;;;;;;;7.95;100.00;100091.81;5016306;28;20266;-73
2021/04/30 00:55:11;;;;;;;25.00;19.43;;;;;;;8.11;100.00;100087.03;5049688;28;20677;-72
2021/04/30 00:57:37;;;;;;;24.83;20.53;;;;;;;7.96;100.00;100096.16;5033514;28;20188;-72
2021/04/30 01:00:06;;;;;;;30.13;24.10;;;;;;;7.94;100.00;100099.13;5051096;28;20202;-72
2021/04/30 01:02:31;;;;;;;31.37;28.03;;;;;;;7.87;100.00;100103.19;4999330;28;20306;-72
2021/04/30 01:04:58;;;;;;;36.10;30.93;;;;;;;7.96;100.00;100101.56;5033158;28;20224;-72
2021/04/30 01:07:26;;;;;;;39.10;31.73;;;;;;;8.16;100.00;100099.72;5016864;28;20724;-72
2021/04/30 01:09:52;;;;;;;38.93;32.67;;;;;;;8.27;100.00;100110.28;5033173;28;20176;-72
2021/04/30 01:12:17;;;;;;;39.20;32.60;;;;;;;8.03;100.00;100109.16;5048419;28;20222;-72
2021/04/30 01:14:45;;;;;;;39.37;33.70;;;;;;;8.18;100.00;100109.19;5033003;28;20191;-73
2021/04/30 01:17:15;;;;;;;40.33;33.60;;;;;;;8.14;100.00;100116.22;5033010;28;20223;-72
2021/04/30 01:19:41;;;;;;;41.50;33.23;;;;;;;8.26;100.00;100108.66;5000357;28;20192;-72
2021/04/30 01:22:09;;;;;;;43.83;33.57;;;;;;;8.15;100.00;100115.16;5034325;28;20242;-72
2021/04/30 01:24:34;;;;;;;41.03;35.03;;;;;;;8.16;100.00;100116.75;5032567;28;20223;-73
2021/04/30 01:27:02;;;;;;;44.83;35.40;;;;;;;8.07;100.00;100137.28;5048938;28;20631;-72
2021/04/30 01:29:30;;;;;;;51.87;36.70;;;;;;;8.07;100.00;100118.34;5016505;28;20179;-73
2021/04/30 01:31:58;;;;;;;46.07;36.27;;;;;;;8.15;100.00;100133.25;5014803;28;20740;-72
2021/04/30 01:34:26;;;;;;;49.27;38.07;;;;;;;7.99;100.00;100128.09;5017022;28;20214;-73
2021/04/30 01:36:56;;;;;;;49.40;36.97;;;;;;;7.99;100.00;100136.19;5016107;28;20611;-72
2021/04/30 01:39:21;;;;;;;52.23;39.37;;;;;;;7.90;100.00;100135.09;5033772;28;20283;-72
2021/04/30 01:41:49;;;;;;;55.87;39.90;;;;;;;7.87;100.00;100143.72;5036373;28;20227;-73
2021/04/30 01:44:15;;;;;;;53.40;38.23;;;;;;;7.97;100.00;100143.78;5014358;28;20220;-73
2021/04/30 01:46:43;;;;;;;57.53;39.93;;;;;;;8.07;100.00;100142.69;5013096;28;20224;-73
2021/04/30 01:49:12;;;;;;;58.37;39.90;;;;;;;8.18;100.00;100144.34;5030670;28;20541;-73
2021/04/30 01:51:37;;;;;;;54.60;39.50;;;;;;;8.09;100.00;100147.81;5000807;28;20252;-74
2021/04/30 01:54:06;;;;;;;55.03;39.60;;;;;;;8.11;100.00;100145.69;5050036;28;20186;-73
2021/04/30 01:56:38;;;;;;;64.47;40.40;;;;;;;8.08;100.00;100149.72;5032640;28;20218;-73
2021/04/30 01:59:06;;;;;;;59.17;40.90;;;;;;;8.21;100.00;100153.84;5032383;28;20183;-73
2021/04/30 02:01:34;;;;;;;57.07;38.80;;;;;;;8.08;100.00;100160.53;5032076;28;20628;-73
2021/04/30 02:04:00;;;;;;;54.90;40.30;;;;;;;8.07;100.00;100169.72;5048180;28;20195;-74
2021/04/30 02:06:26;;;;;;;55.43;40.17;;;;;;;8.22;100.00;100167.09;5015036;28;20250;-73
2021/04/30 02:08:52;;;;;;;56.27;40.10;;;;;;;8.23;100.00;100167.91;5015891;28;20653;-74
2021/04/30 02:11:20;;;;;;;55.80;39.37;;;;;;;8.03;100.00;100167.03;5032195;28;20219;-73
2021/04/30 02:13:49;;;;;;;56.00;40.23;;;;;;;8.13;100.00;100174.13;5015087;28;20657;-73
2021/04/30 02:16:19;;;;;;;52.20;39.37;;;;;;;8.23;100.00;100178.72;5031800;28;20255;-73
2021/04/30 02:18:49;;;;;;;53.43;38.27;;;;;;;8.15;100.00;100177.34;5028614;28;20664;-73
2021/04/30 02:21:17;;;;;;;50.00;37.17;;;;;;;8.03;100.00;100184.84;5012928;28;20232;-73
2021/04/30 02:23:43;;;;;;;49.23;38.17;;;;;;;8.04;100.00;100183.78;5028573;28;20207;-73
2021/04/30 02:26:13;;;;;;;46.23;37.33;;;;;;;8.08;100.00;100176.78;5031858;28;20251;-73
2021/04/30 02:28:47;;;;;;;48.43;39.17;;;;;;;8.26;100.00;100179.00;5017194;28;20270;-74
2021/04/30 02:31:15;;;;;;;51.87;39.83;;;;;;;8.19;100.00;100186.56;5048104;28;20229;-74
2021/04/30 02:33:43;;;;;;;53.23;39.23;;;;;;;8.19;100.00;100189.25;5032167;28;20180;-73
2021/04/30 02:36:11;;;;;;;48.43;38.13;;;;;;;8.21;100.00;100189.00;5015107;28;20231;-73
2021/04/30 02:38:42;;;;;;;49.97;39.10;;;;;;;8.25;100.00;100199.00;5016106;28;20253;-74
2021/04/30 02:41:10;;;;;;;50.83;39.50;;;;;;;8.24;100.00;100197.41;5011508;28;20729;-73
2021/04/30 02:43:37;;;;;;;49.60;40.07;;;;;;;8.36;100.00;100206.06;5014084;28;20242;-73
2021/04/30 02:46:08;;;;;;;56.20;41.80;;;;;;;8.26;100.00;100210.63;5016087;28;20236;-73
2021/04/30 02:48:37;;;;;;;52.07;40.77;;;;;;;8.22;100.00;100204.97;5016240;28;20180;-73
2021/04/30 02:51:08;;;;;;;53.07;40.87;;;;;;;8.10;100.00;100201.69;5015571;28;20713;-73
2021/04/30 02:53:34;;;;;;;55.33;41.07;;;;;;;8.28;100.00;100209.31;5015241;28;20184;-74
2021/04/30 02:56:00;;;;;;;49.00;38.43;;;;;;;8.29;100.00;100202.78;5015162;28;20236;-73
2021/04/30 02:58:33;;;;;;;53.07;40.53;;;;;;;8.33;100.00;100214.69;5032303;28;20246;-73
2021/04/30 03:00:59;;;;;;;49.47;38.77;;;;;;;8.25;100.00;100209.03;5046036;28;20223;-74
2021/04/30 03:03:25;;;;;;;54.73;41.50;;;;;;;8.12;100.00;100212.25;5034834;28;20221;-73
2021/04/30 03:05:51;;;;;;;54.80;42.10;;;;;;;8.14;100.00;100207.38;5034333;28;20228;-74
2021/04/30 03:08:18;;;;;;;54.73;41.03;;;;;;;8.18;100.00;100219.28;5015726;28;20239;-74
2021/04/30 03:10:44;;;;;;;55.17;41.67;;;;;;;8.31;100.00;100210.66;4999109;28;20779;-73
2021/04/30 03:13:14;;;;;;;56.00;43.10;;;;;;;8.21;100.00;100214.16;5015110;28;20180;-74
2021/04/30 03:15:42;;;;;;;56.67;42.60;;;;;;;8.12;100.00;100223.06;4998434;28;20247;-73
2021/04/30 03:18:13;;;;;;;55.43;41.37;;;;;;;8.18;100.00;100225.50;5029399;28;20195;-73
2021/04/30 03:20:41;;;;;;;54.10;43.03;;;;;;;8.13;100.00;100236.31;5054963;28;20333;-73
2021/04/30 03:23:10;;;;;;;58.40;42.97;;;;;;;8.34;100.00;100229.06;5034894;28;20273;-73
2021/04/30 03:25:36;;;;;;;57.90;43.10;;;;;;;8.23;100.00;100239.03;5018026;28;20247;-73
2021/04/30 03:28:04;;;;;;;55.00;41.57;;;;;;;8.19;100.00;100243.38;5053099;28;20267;-73
2021/04/30 03:30:29;;;;;;;55.70;43.20;;;;;;;8.37;100.00;100234.75;4998576;28;20277;-73
2021/04/30 03:32:57;;;;;;;57.87;42.80;;;;;;;8.43;100.00;100236.38;5030833;28;20180;-73
2021/04/30 03:35:23;;;;;;;55.17;43.03;;;;;;;8.28;100.00;100241.75;5014684;28;20607;-73
2021/04/30 03:37:48;;;;;;;53.20;41.90;;;;;;;8.25;100.00;100236.88;4998935;28;20657;-72
2021/04/30 03:40:14;;;;;;;53.80;43.00;;;;;;;8.28;100.00;100247.19;4997926;28;20188;-73
2021/04/30 03:42:45;;;;;;;58.23;43.70;;;;;;;8.34;100.00;100250.72;5030701;28;20641;-72
2021/04/30 03:45:15;;;;;;;58.40;43.43;;;;;;;8.30;100.00;100245.00;5031049;28;20212;-71
2021/04/30 03:47:43;;;;;;;61.60;44.40;;;;;;;8.37;100.00;100248.28;5031617;28;20268;-72
2021/04/30 03:50:14;;;;;;;57.03;44.73;;;;;;;8.37;100.00;100248.28;5014633;28;20176;-73
2021/04/30 03:52:39;;;;;;;61.27;44.53;;;;;;;8.42;100.00;100245.56;5014305;28;20196;-72
2021/04/30 03:55:05;;;;;;;60.13;43.67;;;;;;;8.40;100.00;100255.03;5013546;28;20196;-73
2021/04/30 03:57:36;;;;;;;56.73;43.47;;;;;;;8.43;100.00;100255.31;5015291;28;20180;-72
2021/04/30 04:00:02;;;;;;;59.93;46.30;;;;;;;8.39;100.00;100259.66;5014811;28;20646;-72
2021/04/30 04:02:42;;;;;;;57.83;43.37;;;;;;;8.37;100.00;100261.81;5014978;28;20301;-72
2021/04/30 04:05:08;;;;;;;51.67;41.53;;;;;;;8.25;100.00;100276.66;5030619;28;20219;-73
2021/04/30 04:07:34;;;;;;;56.13;42.37;;;;;;;8.18;100.00;100278.78;5031334;28;20180;-74
2021/04/30 04:10:00;;;;;;;53.83;41.00;;;;;;;8.19;100.00;100278.53;4998383;28;20202;-72
2021/04/30 04:12:25;;;;;;;53.30;40.60;;;;;;;8.33;100.00;100285.03;4997343;28;20231;-71
2021/04/30 04:14:53;;;;;;;51.53;40.00;;;;;;;8.11;100.00;100295.28;5014516;28;20211;-73
2021/04/30 04:17:19;;;;;;;45.87;39.93;;;;;;;8.19;100.00;100289.34;5030066;28;20232;-75
2021/04/30 04:19:50;;;;;;;46.87;38.60;;;;;;;8.17;100.00;100288.00;4997936;28;20198;-74
2021/04/30 04:22:16;;;;;;;46.30;38.00;;;;;;;8.46;100.00;100292.66;5029792;28;20293;-73
2021/04/30 04:24:41;;;;;;;46.47;38.13;;;;;;;8.63;100.00;100293.25;5014193;28;20236;-74
2021/04/30 04:27:07;;;;;;;47.93;39.60;;;;;;;8.56;100.00;100298.09;5013753;28;20586;-73
2021/04/30 04:29:41;;;;;;;48.80;39.57;;;;;;;8.56;100.00;100303.50;5032190;28;20184;-73
2021/04/30 04:32:11;;;;;;;48.37;39.77;;;;;;;8.58;100.00;100306.75;5029327;28;20311;-74
2021/04/30 04:34:39;;;;;;;43.57;37.17;;;;;;;8.67;100.00;100305.97;5014291;28;20201;-74
2021/04/30 04:37:09;;;;;;;50.83;38.20;;;;;;;8.58;100.00;100301.34;4997739;28;20223;-73
2021/04/30 04:39:34;;;;;;;44.43;39.07;;;;;;;8.61;100.00;100323.28;5004991;28;20193;-77
2021/04/30 04:42:03;;;;;;;44.40;38.90;;;;;;;8.63;100.00;100312.19;5029131;28;20286;-74
2021/04/30 04:44:29;;;;;;;46.53;38.90;;;;;;;8.82;100.00;100318.72;5030468;28;20213;-74
2021/04/30 04:46:57;;;;;;;47.10;39.23;;;;;;;8.91;100.00;100324.13;5013136;28;20630;-73
2021/04/30 04:49:25;;;;;;;45.07;38.37;;;;;;;8.73;100.00;100320.31;5031620;28;20724;-74
2021/04/30 04:51:51;;;;;;;43.00;36.93;;;;;;;8.68;100.00;100333.84;5012858;28;20220;-74
2021/04/30 04:54:21;;;;;;;45.37;38.80;;;;;;;8.71;100.00;100330.63;5030222;28;20265;-74
2021/04/30 04:56:49;;;;;;;44.30;37.60;;;;;;;8.73;100.00;100325.75;5013353;28;20240;-74
2021/04/30 04:59:17;;;;;;;45.13;38.80;;;;;;;8.94;100.00;100328.22;5001697;28;20642;-74
2021/04/30 05:01:43;;;;;;;43.47;38.20;;;;;;;8.95;100.00;100338.75;5012977;28;20220;-74
2021/04/30 05:04:13;;;;;;;43.63;37.33;;;;;;;8.82;100.00;100334.97;5031847;28;20224;-75
2021/04/30 05:06:38;;;;;;;45.67;37.50;;;;;;;9.02;100.00;100339.31;5032644;28;20230;-74
2021/04/30 05:09:06;;;;;;;44.47;38.50;;;;;;;8.91;100.00;100345.00;5017624;28;20569;-75
2021/04/30 05:11:32;;;;;;;42.63;36.97;;;;;;;8.88;100.00;100345.53;5000049;28;20219;-74
2021/04/30 05:13:58;;;;;;;42.87;36.60;;;;;;;8.86;100.00;100348.53;5032222;28;20180;-74
2021/04/30 05:16:23;;;;;;;42.57;35.77;;;;;;;8.86;100.00;100359.34;5015744;28;20613;-75
2021/04/30 05:18:51;;;;;;;40.17;34.37;;;;;;;8.99;100.00;100363.41;5033728;28;20290;-76
2021/04/30 05:21:20;;;;;;;38.73;34.30;;;;;;;9.16;100.00;100362.09;5032467;28;20226;-74
2021/04/30 05:23:45;;;;;;;38.47;34.27;;;;;;;9.16;100.00;100362.09;5015876;28;20215;-73
2021/04/30 05:26:11;;;;;;;41.80;35.63;;;;;;;9.21;100.00;100364.78;5034728;28;20233;-72
2021/04/30 05:28:39;;;;;;;38.80;34.37;;;;;;;9.16;100.00;100364.81;5016858;28;20614;-73
2021/04/30 05:31:04;;;;;;;39.50;34.20;;;;;;;9.28;100.00;100378.88;5016536;28;20219;-74
2021/04/30 05:33:30;;;;;;;37.93;33.90;;;;;;;9.33;100.00;100384.31;4999269;28;20554;-73
2021/04/30 05:35:57;;;;;;;37.07;33.07;;;;;;;9.41;100.00;100384.56;5032497;28;20231;-73
2021/04/30 05:38:23;;;;;;;36.57;32.57;;;;;;;9.53;100.00;100387.03;5032938;28;20187;-74
2021/04/30 05:40:51;;;;;;;33.23;29.77;;;;;;;9.18;100.00;100395.16;5016474;28;20223;-74
2021/04/30 05:43:21;;;;;;;32.37;29.03;;;;;;;9.40;100.00;100398.41;5015529;28;20302;-73
2021/04/30 05:45:50;;;;;;;31.60;28.37;;;;;;;9.51;100.00;100397.34;4999722;28;20313;-74
2021/04/30 05:48:21;;;;;;;31.00;27.73;;;;;;;9.67;100.00;100395.16;5049143;28;20245;-74
2021/04/30 05:50:49;;;;;;;31.90;28.40;;;;;;;9.60;100.00;100389.19;5049991;28;20372;-73
2021/04/30 05:53:22;;;;;;;31.03;27.73;;;;;;;9.59;100.00;100409.22;5016386;28;20673;-74
2021/04/30 05:55:49;;;;;;;28.90;26.00;;;;;;;9.48;100.00;100411.41;5032681;28;20237;-74
2021/04/30 05:58:14;;;;;;;29.70;26.67;;;;;;;9.61;100.00;100404.38;5049488;28;20195;-72
2021/04/30 06:00:40;;;;;;;29.53;26.53;;;;;;;9.87;100.00;100405.97;5046220;28;20713;-72
2021/04/30 06:03:06;;;;;;;29.33;26.33;;;;;;;10.09;100.00;100409.19;5028595;28;20180;-73
2021/04/30 06:05:33;;;;;;;28.30;25.37;;;;;;;9.89;100.00;100420.09;5012228;28;20709;-72
2021/04/30 06:08:01;;;;;;;27.20;24.40;;;;;;;9.87;100.00;100416.00;5017211;28;20191;-72
2021/04/30 06:10:27;;;;;;;25.77;23.20;;;;;;;10.10;100.00;100421.69;5015980;28;20247;-73
2021/04/30 06:12:53;;;;;;;25.93;23.33;;;;;;;10.46;100.00;100426.75;5031594;28;20271;-73
2021/04/30 06:15:23;;;;;;;23.50;21.00;;;;;;;10.03;100.00;100430.09;5049234;28;20211;-73
2021/04/30 06:17:49;;;;;;;24.60;22.10;;;;;;;10.29;100.00;100430.88;5019271;28;20642;-72
2021/04/30 06:20:14;;;;;;;25.23;22.73;;;;;;;10.76;100.00;100430.16;4995455;28;20208;-72
2021/04/30 06:22:40;;;;;;;23.50;21.20;;;;;;;10.72;100.00;100439.94;5028178;28;20184;-72
2021/04/30 06:25:06;;;;;;;22.43;20.13;;;;;;;10.50;100.00;100438.69;5039280;28;20709;-72
2021/04/30 06:27:34;;;;;;;21.67;19.40;;;;;;;10.25;100.00;100446.88;5015809;28;20184;-72
2021/04/30 06:30:00;;;;;;;24.30;21.83;;;;;;;10.58;100.00;100447.06;5050169;28;20188;-72
2021/04/30 06:32:28;;;;;;;19.73;17.87;;;;;;;10.07;100.00;100454.78;5031028;28;20223;-72
2021/04/30 06:34:56;;;;;;;21.33;19.07;;;;;;;10.44;100.00;100462.31;5015856;28;20207;-73
2021/04/30 06:37:25;;;;;;;21.63;19.37;;;;;;;10.71;100.00;100460.03;5015546;28;20222;-73
2021/04/30 06:39:52;;;;;;;20.70;18.70;;;;;;;10.60;100.00;100458.44;5017032;28;20191;-73
2021/04/30 06:42:17;;;;;;;18.40;16.60;;;;;;;10.43;100.00;100470.75;5030797;28;20307;-73
2021/04/30 06:44:43;;;;;;;17.33;15.53;;;;;;;10.46;100.00;100465.56;5016115;28;20215;-72
2021/04/30 06:47:09;;;;;;;19.87;17.77;;;;;;;10.17;100.00;100471.06;5014929;28;20272;-72
2021/04/30 06:49:34;;;;;;;19.77;17.67;;;;;;;10.32;100.00;100468.34;5031575;28;20183;-73
2021/04/30 06:52:00;;;;;;;20.03;18.03;;;;;;;10.41;100.00;100473.72;5030622;28;20728;-72
2021/04/30 06:54:25;;;;;;;19.40;17.43;;;;;;;10.00;100.00;100481.41;5015365;28;20627;-72
2021/04/30 06:56:51;;;;;;;19.23;17.33;;;;;;;10.34;100.00;100477.00;5048077;28;20227;-72
2021/04/30 06:59:16;;;;;;;19.70;17.60;;;;;;;10.28;100.00;100484.34;5031986;28;20183;-74
2021/04/30 07:01:44;;;;;;;20.07;17.97;;;;;;;10.29;100.00;100479.72;5049348;28;20217;-73
2021/04/30 07:04:10;;;;;;;19.90;17.97;;;;;;;10.29;100.00;100490.59;5019826;28;20208;-73
2021/04/30 07:06:36;;;;;;;19.87;17.83;;;;;;;10.24;100.00;100487.91;5017786;28;20249;-72
2021/04/30 07:09:02;;;;;;;19.63;17.70;;;;;;;10.06;100.00;100491.97;5031989;28;20207;-72
2021/04/30 07:11:28;;;;;;;20.90;18.70;;;;;;;9.94;100.00;100497.97;5048055;28;20208;-72
2021/04/30 07:13:53;;;;;;;20.40;18.30;;;;;;;10.09;100.00;100493.31;5013916;28;20183;-74
2021/04/30 07:16:24;;;;;;;19.90;18.00;;;;;;;10.24;100.00;100498.75;4995692;28;20227;-73
2021/04/30 07:18:49;;;;;;;18.47;16.50;;;;;;;9.86;100.00;100502.00;5029802;28;20678;-73
2021/04/30 07:21:15;;;;;;;17.67;15.87;;;;;;;10.06;100.00;100491.97;5011431;28;20228;-73
2021/04/30 07:23:43;;;;;;;18.10;16.27;;;;;;;10.28;100.00;100495.22;5018844;28;20211;-73
2021/04/30 07:26:09;;;;;;;17.53;15.73;;;;;;;10.14;100.00;100493.31;5029481;28;20716;-73
2021/04/30 07:28:35;;;;;;;17.70;16.00;;;;;;;10.49;100.00;100492.19;5032449;28;20184;-74
2021/04/30 07:31:05;;;;;;;18.80;16.90;;;;;;;10.63;100.00;100485.06;5034082;28;20231;-75
2021/04/30 07:33:37;;;;;;;16.30;14.63;;;;;;;10.42;100.00;100494.38;5038245;28;20183;-74
2021/04/30 07:36:08;;;;;;;17.27;15.47;;;;;;;11.18;100.00;100481.00;5019070;28;20306;-74
2021/04/30 07:38:36;;;;;;;15.57;13.97;;;;;;;10.80;100.00;100494.53;5018497;28;20199;-74
2021/04/30 07:41:04;;;;;;;14.27;12.87;;;;;;;10.84;100.00;100503.75;5017933;28;20226;-74
2021/04/30 07:43:34;;;;;;;14.07;12.03;;;;;;;10.99;100.00;100491.97;5005106;28;20227;-73
2021/04/30 07:46:04;;;;;;;13.07;11.87;;;;;;;10.84;100.00;100494.75;5014471;28;20612;-73
2021/04/30 07:48:32;;;;;;;12.97;11.70;;;;;;;10.78;100.00;100504.84;5017304;28;20208;-73
2021/04/30 07:51:01;;;;;;;13.23;11.90;;;;;;;10.76;100.00;100498.88;5026974;28;20215;-70
2021/04/30 07:53:28;;;;;;;12.83;11.63;;;;;;;11.14;100.00;100507.13;4997051;28;20283;-73
2021/04/30 07:55:54;;;;;;;11.87;10.63;;;;;;;11.37;100.00;100511.09;5023223;28;20588;-74
2021/04/30 07:58:20;;;;;;;11.00;10.00;;;;;;;11.04;100.00;100516.44;5014686;28;20194;-72
2021/04/30 08:00:46;;;;;;;12.33;11.03;;;;;;;11.17;100.00;100511.19;5052059;28;20227;-74
2021/04/30 08:03:14;;;;;;;12.00;10.80;;;;;;;11.95;100.00;100515.31;5002469;28;20187;-73
2021/04/30 08:05:39;;;;;;;10.03;9.13;;;;;;;11.63;99.11;100516.16;5016076;28;20580;-73
2021/04/30 08:08:07;;;;;;;11.80;9.97;;;;;;;11.48;98.25;100516.22;5038054;28;20599;-72
2021/04/30 08:10:37;;;;;;;11.20;10.20;;;;;;;11.77;98.74;100520.63;5016466;28;20318;-72
2021/04/30 08:13:05;;;;;;;11.00;9.90;;;;;;;11.91;97.93;100520.84;4998776;28;20237;-73
2021/04/30 08:15:30;;;;;;;9.23;8.33;;;;;;;11.83;96.08;100516.81;5032474;28;20223;-73
2021/04/30 08:17:58;;;;;;;8.97;8.07;;;;;;;11.90;96.93;100524.63;5034013;28;20207;-73
2021/04/30 08:20:24;;;;;;;10.13;8.63;;;;;;;12.30;93.63;100532.16;5017439;28;20179;-73
2021/04/30 08:22:50;;;;;;;9.70;8.90;;;;;;;12.87;93.26;100530.25;5033685;28;20191;-74
2021/04/30 08:25:18;;;;;;;10.03;9.13;;;;;;;12.73;92.90;100534.75;5014208;28;20342;-76
2021/04/30 08:27:43;;;;;;;10.33;9.43;;;;;;;13.08;89.64;100542.56;5015160;28;20184;-74
2021/04/30 08:30:10;;;;;;;9.87;8.87;;;;;;;13.11;88.89;100539.22;5030675;28;20676;-73
2021/04/30 08:32:35;;;;;;;8.80;8.00;;;;;;;12.69;87.95;100543.78;5023864;28;20187;-74
2021/04/30 08:35:03;;;;;;;9.53;8.73;;;;;;;13.06;86.83;100538.47;5018374;28;20211;-74
2021/04/30 08:37:32;;;;;;;9.83;8.87;;;;;;;13.54;85.90;100536.22;5033825;28;20223;-74
2021/04/30 08:40:00;;;;;;;8.90;8.10;;;;;;;13.90;82.96;100529.94;5017594;28;20241;-73
2021/04/30 08:42:32;;;;;;;7.83;7.13;;;;;;;12.77;81.91;100546.69;5049111;28;20251;-73
2021/04/30 08:44:57;;;;;;;9.60;8.70;;;;;;;12.19;87.36;100535.28;5034612;28;20589;-73
2021/04/30 08:47:25;;;;;;;8.70;7.80;;;;;;;13.17;85.73;100530.69;5010901;28;20220;-74
2021/04/30 08:49:55;;;;;;;8.77;8.03;;;;;;;12.77;84.11;100541.25;5014464;28;20191;-73
2021/04/30 08:52:22;;;;;;;8.40;7.70;;;;;;;12.86;86.35;100545.00;5013093;28;20712;-73
2021/04/30 08:54:53;;;;;;;9.00;8.20;;;;;;;12.58;83.76;100547.72;5014739;28;20302;-73
2021/04/30 08:57:24;;;;;;;8.17;7.40;;;;;;;12.56;83.98;100560.00;5014301;28;20244;-74
2021/04/30 09:00:02;;;;;;;8.60;7.80;;;;;;;12.45;88.61;100553.00;5026936;28;20250;-74
2021/04/30 09:02:30;;;;;;;8.93;8.13;;;;;;;12.65;85.16;100558.28;5016311;28;20294;-73
2021/04/30 09:05:01;;;;;;;8.47;7.67;;;;;;;13.18;81.91;100547.88;5034245;28;20224;-74
2021/04/30 09:07:31;;;;;;;8.93;8.03;;;;;;;13.34;77.85;100554.78;5017975;28;20215;-74
2021/04/30 09:10:07;;;;;;;8.77;7.97;;;;;;;13.26;78.85;100555.41;5034135;28;20194;-73
2021/04/30 09:12:33;;;;;;;8.13;7.43;;;;;;;12.89;79.30;100552.59;5032897;28;20219;-74
2021/04/30 09:14:59;;;;;;;8.80;8.00;;;;;;;12.88;79.33;100559.13;5017473;28;20218;-74
2021/04/30 09:17:27;;;;;;;8.53;7.73;;;;;;;12.99;79.16;100552.47;5049880;28;20215;-74
2021/04/30 09:19:59;;;;;;;8.83;8.07;;;;;;;12.64;83.80;100554.75;4999553;28;20192;-74
2021/04/30 09:22:41;;;;;;;9.07;8.17;;;;;;;12.87;80.22;100549.31;5031709;28;20684;-73
2021/04/30 09:25:13;;;;;;;9.40;8.50;;;;;;;13.01;81.96;100546.75;5032373;28;20250;-72
2021/04/30 09:27:42;;;;;;;8.37;7.33;;;;;;;13.51;77.50;100536.78;5024760;28;20200;-73
2021/04/30 09:30:28;;;;;;;8.40;7.60;;;;;;;13.90;75.17;100540.88;5042558;28;20196;-74
2021/04/30 09:33:09;;;;;;;7.97;7.17;;;;;;;12.85;78.74;100548.81;5021725;28;20202;-74
2021/04/30 09:36:07;;;;;;;8.23;7.50;;;;;;;12.69;81.16;100550.06;5034380;28;20230;-74
2021/04/30 09:38:36;;;;;;;8.10;7.40;;;;;;;12.50;82.23;100550.25;5019260;28;20203;-74
2021/04/30 09:41:01;;;;;;;8.27;7.57;;;;;;;13.04;80.26;100541.50;5052422;28;20238;-74
2021/04/30 09:43:50;;;;;;;7.60;6.90;;;;;;;12.99;78.50;100549.75;5034393;28;20207;-72
2021/04/30 09:46:27;;;;;;;7.10;6.50;;;;;;;12.93;77.42;100561.81;5033006;28;20235;-73
2021/04/30 09:49:10;;;;;;;6.83;6.23;;;;;;;12.74;78.57;100554.63;5010714;28;20225;-73
2021/04/30 09:51:53;;;;;;;7.83;7.13;;;;;;;12.82;80.98;100560.31;5016208;28;20607;-72
2021/04/30 09:54:25;;;;;;;7.23;6.63;;;;;;;12.99;80.39;100554.41;5031355;28;20265;-72
2021/04/30 09:57:11;;;;;;;9.03;7.13;;;;;;;13.67;79.71;100558.13;5045724;28;20319;-73
2021/04/30 09:59:42;;;;;;;7.57;6.97;;;;;;;13.50;78.75;100546.91;5025033;28;20218;-74
2021/04/30 10:02:10;;;;;;;7.43;6.70;;;;;;;13.44;80.45;100558.16;5016951;28;20291;-74
2021/04/30 10:04:36;;;;;;;7.37;6.67;;;;;;;13.87;76.78;100557.81;5018864;28;20209;-73
2021/04/30 10:07:03;;;;;;;7.10;6.50;;;;;;;13.05;78.30;100564.94;5029157;28;20270;-73
2021/04/30 10:09:32;;;;;;;7.73;7.03;;;;;;;12.84;81.98;100574.44;5032602;28;20632;-72
2021/04/30 10:12:19;;;;;;;6.40;5.80;;;;;;;12.89;79.49;100571.69;5031963;28;20246;-72
2021/04/30 10:14:44;;;;;;;7.00;6.30;;;;;;;12.94;81.73;100568.06;5047182;28;20243;-72
2021/04/30 10:17:12;;;;;;;7.07;6.47;;;;;;;12.57;80.50;100578.78;5045041;28;20215;-75
2021/04/30 10:19:37;;;;;;;6.97;6.33;;;;;;;12.81;81.68;100576.94;5023208;28;20184;-73
2021/04/30 10:22:05;;;;;;;7.20;6.50;;;;;;;12.73;83.15;100578.34;5012131;28;21037;-74
2021/04/30 10:24:31;;;;;;;7.43;6.83;;;;;;;12.80;84.30;100572.56;5016532;28;20242;-73
2021/04/30 10:26:57;;;;;;;8.13;7.43;;;;;;;12.88;83.44;100556.41;5000181;28;20681;-74
2021/04/30 10:29:26;;;;;;;7.83;7.10;;;;;;;12.35;85.64;100574.91;5000592;28;20284;-73
2021/04/30 10:31:51;;;;;;;8.50;7.57;;;;;;;12.29;87.93;100570.63;5015553;28;20219;-73
2021/04/30 10:34:21;;;;;;;7.50;6.80;;;;;;;12.07;86.80;100569.44;5000823;28;20194;-74
2021/04/30 10:36:50;;;;;;;7.97;7.23;;;;;;;12.09;88.37;100573.50;5032774;28;20238;-73
2021/04/30 10:39:32;;;;;;;8.23;7.37;;;;;;;11.88;89.79;100567.66;5033391;28;20202;-74
2021/04/30 10:42:12;;;;;;;8.20;7.50;;;;;;;11.61;91.56;100578.16;5032164;28;20258;-73
2021/04/30 10:44:44;;;;;;;8.50;7.70;;;;;;;11.75;92.47;100579.19;5024913;28;20294;-73
2021/04/30 10:47:16;;;;;;;7.23;6.50;;;;;;;11.69;89.11;100580.31;5012785;28;20273;-73
2021/04/30 10:49:42;;;;;;;8.67;7.87;;;;;;;11.94;89.14;100579.06;5031668;28;20203;-74
2021/04/30 10:52:19;;;;;;;8.67;7.07;;;;;;;12.21;88.36;100573.91;5011978;28;20926;-74
2021/04/30 10:55:00;;;;;;;7.73;7.00;;;;;;;11.74;88.13;100582.97;5045036;28;20216;-74
2021/04/30 10:57:26;;;;;;;8.20;7.47;;;;;;;12.29;87.36;100578.78;5022197;28;20215;-74
2021/04/30 10:59:57;;;;;;;7.70;7.00;;;;;;;12.60;86.17;100580.94;5033483;28;20187;-74
2021/04/30 11:02:24;;;;;;;7.20;6.50;;;;;;;12.44;83.25;100584.09;5010933;28;20223;-74
2021/04/30 11:05:12;;;;;;;7.07;6.37;;;;;;;12.29;82.99;100587.75;5014776;28;20228;-73
2021/04/30 11:07:53;;;;;;;7.53;6.83;;;;;;;12.75;83.70;100587.06;5047608;28;20280;-75
2021/04/30 11:10:22;;;;;;;6.93;6.00;;;;;;;13.07;82.14;100585.34;5052242;28;20272;-74
2021/04/30 11:13:00;;;;;;;7.33;6.57;;;;;;;12.95;81.98;100592.34;5051892;28;20190;-74
2021/04/30 11:15:26;;;;;;;7.93;7.03;;;;;;;12.84;80.25;100584.56;5026098;28;20296;-75
2021/04/30 11:18:02;;;;;;;7.80;7.00;;;;;;;13.17;79.39;100595.34;4999796;28;20188;-73
2021/04/30 11:20:29;;;;;;;7.00;6.40;;;;;;;13.16;78.44;100593.72;5018062;28;20225;-75